Time;durP1;ratioP1;P1;durP2;ratioP2;P2;SDS_P1;SDS_P2;PMS_P1;PMS_P2;Temp;Humidity;BMP_temperature;BMP_pressure;BME280_temperature;BME280_humidity;BME280_pressure;Samples;Min_cycle;Max_cycle;Signal;HPM_P1;HPM_P2
2023/12/20 00:01:30;;;;;;;;;;;;;;;17.46;63.59;101201.25;7391639;19;1454;-40
2023/12/20 00:03:58;;;;;;;;;;;;;;;17.44;63.62;101189.00;7393261;19;1589;-40
2023/12/20 00:06:29;;;;;;;;;;;;;;;17.41;63.71;101175.88;7389854;19;1878;-40
2023/12/20 00:08:57;;;;;;;;;;;;;;;17.39;63.89;101184.00;7393405;19;1465;-41
2023/12/20 00:11:26;;;;;;;;;;;;;;;17.66;62.97;101174.84;7392642;19;1495;-40
2023/12/20 00:13:54;;;;;;;;;;;;;;;18.05;62.13;101167.44;7393512;19;1478;-40
2023/12/20 00:16:23;;;;;;;;;;;;;;;18.20;61.48;101190.31;7393055;19;1581;-40
2023/12/20 00:18:51;;;;;;;;;;;;;;;17.92;61.99;101172.88;7391892;19;1482;-40
2023/12/20 00:21:19;;;;;;;;;;;;;;;17.72;62.53;101186.91;7391064;19;1486;-40
2023/12/20 00:23:50;;;;;;;;;;;;;;;17.67;62.87;101181.91;7392093;19;1491;-40
2023/12/20 00:26:18;;;;;;;;;;;;;;;17.63;62.85;101183.13;7391160;19;1872;-40
2023/12/20 00:28:47;;;;;;;;;;;;;;;17.50;63.10;101189.38;7391841;19;1593;-40
2023/12/20 00:31:15;;;;;;;;;;;;;;;17.49;63.26;101182.34;7391129;19;1593;-40
2023/12/20 00:33:46;;;;;;;;;;;;;;;17.58;63.03;101169.22;7392621;19;1483;-40
2023/12/20 00:36:14;;;;;;;;;;;;;;;17.79;62.47;101162.25;7392828;19;1634;-40
2023/12/20 00:38:42;;;;;;;;;;;;;;;18.14;61.52;101177.41;7392472;19;1421;-40
2023/12/20 00:41:13;;;;;;;;;;;;;;;18.06;61.83;101169.13;7392086;19;1428;-40
2023/12/20 00:43:41;;;;;;;;;;;;;;;17.79;62.14;101158.72;7392985;19;1478;-40
2023/12/20 00:46:10;;;;;;;;;;;;;;;17.72;62.73;101160.16;7377721;19;1839;-40
2023/12/20 00:48:38;;;;;;;;;;;;;;;17.61;62.79;101152.97;7391249;19;1523;-40
2023/12/20 00:51:06;;;;;;;;;;;;;;;17.62;62.95;101157.34;7390050;19;1530;-40
2023/12/20 00:53:35;;;;;;;;;;;;;;;17.55;62.96;101167.66;7391216;19;1376;-40
2023/12/20 00:56:03;;;;;;;;;;;;;;;17.39;63.46;101143.91;7390482;19;1394;-40
2023/12/20 00:58:34;;;;;;;;;;;;;;;17.66;62.59;101129.38;7391862;19;1599;-41
2023/12/20 01:01:02;;;;;;;;;;;;;;;17.98;61.96;101131.41;7391186;19;1500;-40
2023/12/20 01:03:31;;;;;;;;;;;;;;;18.05;61.60;101116.59;7391995;19;1217;-40
2023/12/20 01:05:59;;;;;;;;;;;;;;;17.83;61.96;101115.59;7389027;19;1855;-40
2023/12/20 01:08:27;;;;;;;;;;;;;;;17.71;62.46;101121.88;7391937;19;1210;-40
2023/12/20 01:10:56;;;;;;;;;;;;;;;17.58;62.61;101113.91;7391358;19;1550;-40
2023/12/20 01:13:24;;;;;;;;;;;;;;;17.51;62.97;101107.34;7391498;19;1272;-44
2023/12/20 01:15:55;;;;;;;;;;;;;;;17.41;63.08;101101.00;7392136;19;1478;-40
2023/12/20 01:18:23;;;;;;;;;;;;;;;17.43;63.30;101112.44;7391722;19;1516;-40
2023/12/20 01:20:52;;;;;;;;;;;;;;;17.43;63.08;101109.78;7391224;19;1557;-40
2023/12/20 01:23:20;;;;;;;;;;;;;;;17.41;63.10;101093.84;7390860;19;1498;-40
2023/12/20 01:25:48;;;;;;;;;;;;;;;17.32;63.66;101094.53;7391366;19;1861;-43
2023/12/20 01:28:17;;;;;;;;;;;;;;;17.77;62.36;101093.81;7390988;19;1523;-40
2023/12/20 01:30:45;;;;;;;;;;;;;;;18.08;61.48;101074.41;7389678;19;1652;-41
2023/12/20 01:33:16;;;;;;;;;;;;;;;18.03;61.35;101052.47;7391461;19;1585;-40
2023/12/20 01:35:44;;;;;;;;;;;;;;;17.80;61.82;101061.44;7390655;19;1976;-40
2023/12/20 01:38:13;;;;;;;;;;;;;;;17.68;62.49;101052.56;7389674;19;1972;-40
2023/12/20 01:40:41;;;;;;;;;;;;;;;17.60;62.70;101047.78;7389329;19;1554;-40
2023/12/20 01:43:12;;;;;;;;;;;;;;;17.49;62.78;101050.47;7390272;19;1376;-40
2023/12/20 01:45:40;;;;;;;;;;;;;;;17.42;62.96;101042.06;7375201;19;1884;-40
2023/12/20 01:48:09;;;;;;;;;;;;;;;17.29;63.39;101041.31;7389978;19;1375;-40
2023/12/20 01:50:41;;;;;;;;;;;;;;;17.53;62.82;101027.88;7388778;19;1606;-40
2023/12/20 01:53:10;;;;;;;;;;;;;;;17.85;61.99;101032.56;7388479;19;1831;-40
2023/12/20 01:55:40;;;;;;;;;;;;;;;18.16;61.09;101038.97;7388957;19;1280;-40
2023/12/20 01:58:09;;;;;;;;;;;;;;;18.24;61.01;101028.50;7388807;19;1531;-40
2023/12/20 02:00:38;;;;;;;;;;;;;;;18.07;61.23;101020.97;7388846;19;1507;-40
2023/12/20 02:03:07;;;;;;;;;;;;;;;17.74;61.83;101014.63;7387155;19;1228;-40
2023/12/20 02:05:37;;;;;;;;;;;;;;;17.67;62.37;101024.13;7387659;19;1861;-40
2023/12/20 02:08:08;;;;;;;;;;;;;;;17.63;62.47;101028.00;7389831;19;1495;-40
2023/12/20 02:10:37;;;;;;;;;;;;;;;17.56;62.60;101037.47;7388937;19;1324;-40
2023/12/20 02:13:05;;;;;;;;;;;;;;;17.36;62.96;101015.81;7388286;19;1479;-40
2023/12/20 02:15:34;;;;;;;;;;;;;;;17.26;63.29;101017.47;7388700;19;1581;-40
2023/12/20 02:18:02;;;;;;;;;;;;;;;17.59;62.64;101011.34;7388619;19;1408;-40
2023/12/20 02:20:31;;;;;;;;;;;;;;;17.97;61.67;101001.28;7387317;19;1565;-40
2023/12/20 02:23:02;;;;;;;;;;;;;;;18.02;61.36;101009.78;7387606;19;1488;-40
2023/12/20 02:25:30;;;;;;;;;;;;;;;17.79;61.37;101009.78;7388659;19;1857;-40
2023/12/20 02:27:58;;;;;;;;;;;;;;;17.63;62.25;100985.22;7388549;19;1870;-40
2023/12/20 02:30:27;;;;;;;;;;;;;;;17.55;62.56;100990.28;7388751;19;2286;-41
2023/12/20 02:32:56;;;;;;;;;;;;;;;17.37;63.14;100988.13;7389232;19;1417;-40
2023/12/20 02:35:24;;;;;;;;;;;;;;;17.74;62.48;100992.38;7388154;19;1484;-40
2023/12/20 02:37:52;;;;;;;;;;;;;;;18.55;60.29;100977.78;7388449;19;1527;-40
2023/12/20 02:40:23;;;;;;;;;;;;;;;19.36;58.62;100979.94;7388719;19;1613;-40
2023/12/20 02:42:51;;;;;;;;;;;;;;;19.67;57.43;100970.91;7379794;19;1984;-39
2023/12/20 02:45:20;;;;;;;;;;;;;;;19.28;58.83;100980.63;7376201;19;1608;-39
2023/12/20 02:47:46;;;;;;;;;;;;;;;19.24;59.06;100971.16;7387532;19;1854;-39
2023/12/20 02:50:14;;;;;;;;;;;;;;;19.54;58.26;100964.09;7393181;19;1268;-39
2023/12/20 02:52:42;;;;;;;;;;;;;;;19.54;58.41;100956.91;7393305;19;1278;-39
2023/12/20 02:55:11;;;;;;;;;;;;;;;19.58;58.36;100954.81;7394668;19;1535;-39
2023/12/20 02:57:42;;;;;;;;;;;;;;;19.58;58.26;100946.75;7395016;19;1305;-39
2023/12/20 03:00:11;;;;;;;;;;;;;;;19.62;58.12;100957.06;7393624;19;1491;-39
2023/12/20 03:02:39;;;;;;;;;;;;;;;19.90;57.49;100948.44;7390938;19;1540;-39
2023/12/20 03:05:08;;;;;;;;;;;;;;;19.88;57.52;100961.16;7391336;19;1463;-39
2023/12/20 03:07:36;;;;;;;;;;;;;;;19.86;57.55;100953.25;7391176;19;1859;-39
2023/12/20 03:10:06;;;;;;;;;;;;;;;20.16;57.01;100962.22;7393773;19;1584;-39
2023/12/20 03:12:34;;;;;;;;;;;;;;;19.97;57.34;100955.78;7390010;19;1410;-39
2023/12/20 03:15:05;;;;;;;;;;;;;;;19.76;57.89;100939.78;7392952;19;1392;-39
2023/12/20 03:17:33;;;;;;;;;;;;;;;20.07;57.09;100955.81;7390869;19;1405;-39
2023/12/20 03:20:01;;;;;;;;;;;;;;;19.86;57.55;100943.34;7390507;19;1442;-40
2023/12/20 03:22:30;;;;;;;;;;;;;;;19.86;57.45;100940.66;7389981;19;1399;-40
2023/12/20 03:24:58;;;;;;;;;;;;;;;19.98;57.12;100935.19;7393135;19;1637;-39
2023/12/20 03:27:27;;;;;;;;;;;;;;;19.89;57.54;100926.13;7390852;19;1862;-39
2023/12/20 03:29:55;;;;;;;;;;;;;;;20.01;57.31;100929.53;7391261;19;1526;-39
2023/12/20 03:32:26;;;;;;;;;;;;;;;20.03;57.25;100938.28;7392080;19;1742;-39
2023/12/20 03:34:54;;;;;;;;;;;;;;;19.99;57.27;100932.34;7391372;19;1428;-39
2023/12/20 03:37:22;;;;;;;;;;;;;;;20.07;57.17;100926.28;7392606;19;1269;-39
2023/12/20 03:39:51;;;;;;;;;;;;;;;20.04;56.95;100908.63;7391369;19;1645;-39
2023/12/20 03:42:19;;;;;;;;;;;;;;;19.99;57.33;100912.72;7393364;19;1276;-39
2023/12/20 03:44:47;;;;;;;;;;;;;;;20.00;57.26;100906.38;7394031;19;1526;-39
2023/12/20 03:47:16;;;;;;;;;;;;;;;20.14;56.74;100897.91;7378196;19;1850;-39
2023/12/20 03:49:47;;;;;;;;;;;;;;;19.99;57.20;100902.81;7390750;19;2264;-39
2023/12/20 03:52:15;;;;;;;;;;;;;;;20.14;56.88;100897.06;7394175;19;1734;-39
2023/12/20 03:54:44;;;;;;;;;;;;;;;19.99;57.17;100885.88;7393423;19;1350;-39
2023/12/20 03:57:12;;;;;;;;;;;;;;;19.31;58.67;100882.97;7392532;19;1471;-39
2023/12/20 03:59:41;;;;;;;;;;;;;;;18.84;59.79;100886.09;7393073;19;1241;-39
2023/12/20 04:02:09;;;;;;;;;;;;;;;18.53;60.62;100877.13;7391626;19;1652;-39
2023/12/20 04:04:37;;;;;;;;;;;;;;;18.20;60.17;100895.88;7391683;19;1526;-39
2023/12/20 04:07:08;;;;;;;;;;;;;;;18.06;61.54;100890.81;7392196;19;1867;-39
2023/12/20 04:09:36;;;;;;;;;;;;;;;18.16;61.56;100890.91;7391834;19;1592;-39
2023/12/20 04:12:05;;;;;;;;;;;;;;;18.44;61.00;100881.41;7392008;19;1581;-39
2023/12/20 04:14:33;;;;;;;;;;;;;;;18.60;60.77;100881.84;7391859;19;1475;-39
2023/12/20 04:17:02;;;;;;;;;;;;;;;18.73;60.64;100883.47;7392039;19;1465;-39
2023/12/20 04:19:30;;;;;;;;;;;;;;;18.84;60.30;100880.75;7391852;19;1478;-39
2023/12/20 04:21:58;;;;;;;;;;;;;;;18.87;60.17;100872.44;7393613;19;1614;-39
2023/12/20 04:24:29;;;;;;;;;;;;;;;18.94;60.13;100876.31;7391512;19;1483;-39
2023/12/20 04:26:58;;;;;;;;;;;;;;;18.95;59.96;100853.03;7391922;19;1859;-39
2023/12/20 04:29:26;;;;;;;;;;;;;;;18.90;60.06;100861.47;7389488;19;1918;-39
2023/12/20 04:31:54;;;;;;;;;;;;;;;19.04;59.44;100876.38;7392344;19;1736;-40
2023/12/20 04:34:23;;;;;;;;;;;;;;;19.15;58.95;100878.94;7392830;19;1399;-39
2023/12/20 04:36:51;;;;;;;;;;;;;;;19.20;58.96;100865.13;7394441;19;1015;-39
2023/12/20 04:39:20;;;;;;;;;;;;;;;19.23;58.63;100875.59;7391879;19;1494;-39
2023/12/20 04:41:50;;;;;;;;;;;;;;;19.27;58.40;100856.41;7391989;19;1574;-39
2023/12/20 04:44:19;;;;;;;;;;;;;;;19.22;58.44;100863.19;7390892;19;1516;-39
2023/12/20 04:46:47;;;;;;;;;;;;;;;19.21;58.64;100854.28;7376513;19;1869;-39
2023/12/20 04:49:15;;;;;;;;;;;;;;;19.21;59.16;100856.13;7391547;19;1383;-39
2023/12/20 04:51:44;;;;;;;;;;;;;;;19.21;58.94;100846.22;7391387;19;1515;-39
2023/12/20 04:54:13;;;;;;;;;;;;;;;19.13;59.17;100846.06;7389981;19;1596;-39
2023/12/20 04:56:41;;;;;;;;;;;;;;;18.97;59.74;100854.59;7391542;19;1400;-40
2023/12/20 04:59:13;;;;;;;;;;;;;;;19.16;59.56;100867.25;7392854;19;1383;-39
2023/12/20 05:01:41;;;;;;;;;;;;;;;19.01;59.94;100849.81;7390446;19;1931;-39
2023/12/20 05:04:09;;;;;;;;;;;;;;;18.82;59.64;100845.19;7387405;19;1537;-39
2023/12/20 05:06:38;;;;;;;;;;;;;;;19.01;59.64;100839.94;7389249;19;1938;-39
2023/12/20 05:09:06;;;;;;;;;;;;;;;19.12;59.33;100854.22;7391198;19;1145;-39
2023/12/20 05:11:35;;;;;;;;;;;;;;;19.16;58.91;100847.63;7391415;19;1928;-39
2023/12/20 05:14:03;;;;;;;;;;;;;;;19.18;58.79;100859.94;7391508;19;1495;-39
2023/12/20 05:16:34;;;;;;;;;;;;;;;19.15;58.95;100845.94;7390172;19;1256;-39
2023/12/20 05:19:06;;;;;;;;;;;;;;;19.11;59.11;100844.50;7391649;19;1551;-39
2023/12/20 05:21:35;;;;;;;;;;;;;;;19.01;59.10;100834.59;7389923;19;1560;-39
2023/12/20 05:24:04;;;;;;;;;;;;;;;19.12;59.03;100846.19;7387626;19;1250;-39
2023/12/20 05:26:32;;;;;;;;;;;;;;;19.27;58.67;100831.44;7389326;19;1850;-39
2023/12/20 05:29:00;;;;;;;;;;;;;;;19.27;58.54;100831.44;7390259;19;1551;-39
2023/12/20 05:31:29;;;;;;;;;;;;;;;19.23;58.54;100835.38;7391069;19;1396;-39
2023/12/20 05:34:00;;;;;;;;;;;;;;;19.14;58.97;100828.13;7391919;19;1026;-39
2023/12/20 05:36:28;;;;;;;;;;;;;;;19.24;58.82;100834.41;7390752;19;1847;-39
2023/12/20 05:38:56;;;;;;;;;;;;;;;19.22;58.42;100831.88;7391506;19;1759;-39
2023/12/20 05:41:25;;;;;;;;;;;;;;;19.31;58.09;100832.88;7390978;19;1823;-40
2023/12/20 05:43:53;;;;;;;;;;;;;;;19.28;57.85;100822.44;7390242;19;1551;-39
2023/12/20 05:46:21;;;;;;;;;;;;;;;19.24;57.39;100829.91;7376469;19;1400;-39
2023/12/20 05:48:51;;;;;;;;;;;;;;;19.33;57.72;100827.38;7389441;19;1865;-39
2023/12/20 05:51:22;;;;;;;;;;;;;;;19.38;57.38;100825.16;7389079;19;1540;-39
2023/12/20 05:53:50;;;;;;;;;;;;;;;19.22;57.90;100820.31;7388371;19;1415;-42
2023/12/20 05:56:18;;;;;;;;;;;;;;;19.19;57.51;100825.91;7236011;19;14606;-40
2023/12/20 05:58:47;;;;;;;;;;;;;;;19.25;57.06;100836.94;7386720;19;1262;-40
2023/12/20 06:01:16;;;;;;;;;;;;;;;19.15;57.49;100827.16;7389874;19;1751;-39
2023/12/20 06:03:45;;;;;;;;;;;;;;;19.08;57.13;100814.31;7390868;19;1117;-40
2023/12/20 06:06:14;;;;;;;;;;;;;;;18.97;57.14;100822.44;7387849;19;1849;-40
2023/12/20 06:08:45;;;;;;;;;;;;;;;19.06;56.96;100820.81;7388204;19;1838;-39
2023/12/20 06:11:14;;;;;;;;;;;;;;;19.00;57.30;100827.53;7389602;19;1492;-40
2023/12/20 06:13:43;;;;;;;;;;;;;;;19.10;57.11;100829.41;7390383;19;1731;-40
2023/12/20 06:16:11;;;;;;;;;;;;;;;19.10;57.08;100824.03;7392270;19;1716;-40
2023/12/20 06:18:39;;;;;;;;;;;;;;;19.09;57.22;100820.50;7396636;19;1778;-40
2023/12/20 06:21:08;;;;;;;;;;;;;;;19.12;57.06;100828.31;7396309;19;1479;-40
2023/12/20 06:23:36;;;;;;;;;;;;;;;19.09;57.25;100823.19;7395566;19;1751;-40
2023/12/20 06:26:07;;;;;;;;;;;;;;;19.06;57.13;100821.63;7395861;19;1832;-40
2023/12/20 06:28:35;;;;;;;;;;;;;;;19.15;56.05;100829.84;7386118;19;1873;-40
2023/12/20 06:31:04;;;;;;;;;;;;;;;19.13;56.20;100831.81;7394968;19;1285;-40
2023/12/20 06:33:32;;;;;;;;;;;;;;;19.10;56.40;100821.34;7395486;19;1149;-40
2023/12/20 06:36:00;;;;;;;;;;;;;;;19.06;56.80;100815.44;7394431;19;1573;-40
2023/12/20 06:38:29;;;;;;;;;;;;;;;19.11;56.71;100813.19;7395667;19;1731;-41
2023/12/20 06:40:58;;;;;;;;;;;;;;;19.12;56.75;100814.91;7394278;19;1679;-40
2023/12/20 06:43:30;;;;;;;;;;;;;;;19.08;56.71;100808.94;7394530;19;1819;-40
2023/12/20 06:45:58;;;;;;;;;;;;;;;19.17;56.59;100827.88;7378562;19;1814;-40
2023/12/20 06:48:27;;;;;;;;;;;;;;;19.15;56.88;100800.38;7394306;19;1843;-41
2023/12/20 06:50:55;;;;;;;;;;;;;;;19.15;57.05;100800.38;7394700;19;1659;-41
2023/12/20 06:53:24;;;;;;;;;;;;;;;19.13;56.84;100813.06;7395891;19;1838;-39
2023/12/20 06:55:52;;;;;;;;;;;;;;;19.12;57.23;100796.13;7394358;19;1390;-40
2023/12/20 06:58:20;;;;;;;;;;;;;;;19.22;56.68;100813.09;7396629;19;958;-40
2023/12/20 07:00:51;;;;;;;;;;;;;;;19.10;57.19;100805.28;7393691;19;1602;-40
2023/12/20 07:03:19;;;;;;;;;;;;;;;19.22;56.83;100810.41;7395569;19;1811;-40
2023/12/20 07:05:48;;;;;;;;;;;;;;;19.08;57.16;100842.97;7392208;19;1293;-40
2023/12/20 07:08:16;;;;;;;;;;;;;;;18.79;57.71;100783.81;7390506;19;1868;-40
2023/12/20 07:10:45;;;;;;;;;;;;;;;18.56;58.56;100813.47;7391934;19;1588;-41
2023/12/20 07:13:13;;;;;;;;;;;;;;;18.28;58.99;100793.50;7389737;19;2187;-40
2023/12/20 07:15:42;;;;;;;;;;;;;;;18.03;58.41;100795.59;7391784;19;1924;-40
2023/12/20 07:18:13;;;;;;;;;;;;;;;17.99;59.57;100798.66;7391165;19;1430;-40
2023/12/20 07:20:41;;;;;;;;;;;;;;;18.46;58.77;100788.41;7393076;19;1230;-40
2023/12/20 07:23:10;;;;;;;;;;;;;;;18.77;58.46;100793.81;7394051;19;1708;-40
2023/12/20 07:25:38;;;;;;;;;;;;;;;19.00;57.89;100776.63;7393169;19;1030;-40
2023/12/20 07:28:06;;;;;;;;;;;;;;;19.01;57.69;100778.31;7389659;19;1929;-45
2023/12/20 07:30:35;;;;;;;;;;;;;;;18.68;58.60;100779.38;7392288;19;1592;-40
2023/12/20 07:33:03;;;;;;;;;;;;;;;18.36;59.04;100769.63;7390405;19;1898;-40
2023/12/20 07:35:34;;;;;;;;;;;;;;;18.20;59.49;100767.41;7391380;19;1503;-40
2023/12/20 07:38:02;;;;;;;;;;;;;;;18.07;59.82;100764.94;7391868;19;1747;-40
2023/12/20 07:40:31;;;;;;;;;;;;;;;18.45;59.08;100763.47;7389161;19;1496;-40
2023/12/20 07:42:59;;;;;;;;;;;;;;;18.94;57.91;100752.19;7391717;19;1509;-40
2023/12/20 07:45:27;;;;;;;;;;;;;;;18.93;58.10;100750.50;7389504;19;1802;-40
2023/12/20 07:47:56;;;;;;;;;;;;;;;18.64;58.55;100745.81;7372204;19;2399;-40
2023/12/20 07:50:24;;;;;;;;;;;;;;;18.41;59.15;100759.38;7389936;19;1044;-40
2023/12/20 07:52:55;;;;;;;;;;;;;;;18.19;59.64;100748.81;7389502;19;1306;-40
2023/12/20 07:55:24;;;;;;;;;;;;;;;18.06;60.01;100741.84;7389906;19;1834;-40
2023/12/20 07:57:52;;;;;;;;;;;;;;;18.24;59.82;100750.13;7388988;19;1580;-40
2023/12/20 08:00:20;;;;;;;;;;;;;;;18.50;59.31;100749.69;7388303;19;1767;-40
2023/12/20 08:02:49;;;;;;;;;;;;;;;18.69;58.83;100747.13;7388837;19;1442;-40
2023/12/20 08:05:17;;;;;;;;;;;;;;;18.92;58.32;100738.06;7391205;19;1731;-40
2023/12/20 08:07:45;;;;;;;;;;;;;;;18.94;58.19;100736.97;7391290;19;2578;-40
2023/12/20 08:10:18;;;;;;;;;;;;;;;18.97;58.17;100751.91;7393130;19;1743;-41
2023/12/20 08:12:46;;;;;;;;;;;;;;;18.89;58.16;100739.19;7391804;19;1632;-40
2023/12/20 08:15:14;;;;;;;;;;;;;;;19.02;58.28;100755.91;7392989;19;1672;-40
2023/12/20 08:17:42;;;;;;;;;;;;;;;18.90;58.31;100748.94;7390837;19;1488;-40
2023/12/20 08:20:11;;;;;;;;;;;;;;;18.86;58.52;100742.13;7390732;19;1223;-40
2023/12/20 08:22:39;;;;;;;;;;;;;;;18.91;58.30;100761.34;7390394;19;1604;-39
2023/12/20 08:25:08;;;;;;;;;;;;;;;18.94;58.18;100736.97;7392006;19;1619;-40
2023/12/20 08:27:41;;;;;;;;;;;;;;;18.93;58.35;100737.09;7391399;19;1913;-40
2023/12/20 08:30:10;;;;;;;;;;;;;;;18.93;58.25;100719.19;7391452;19;1262;-40
2023/12/20 08:32:38;;;;;;;;;;;;;;;18.95;58.13;100717.22;7386801;19;1401;-40
2023/12/20 08:35:07;;;;;;;;;;;;;;;19.02;58.20;100701.41;7391615;19;1469;-40
2023/12/20 08:37:35;;;;;;;;;;;;;;;19.08;57.99;100707.09;7391614;19;1456;-40
2023/12/20 08:40:04;;;;;;;;;;;;;;;19.17;57.67;100696.53;7391241;19;1759;-40
2023/12/20 08:42:32;;;;;;;;;;;;;;;19.11;57.84;100703.28;7389459;19;1446;-40
2023/12/20 08:45:04;;;;;;;;;;;;;;;19.14;57.88;100689.63;7391747;19;1044;-39
2023/12/20 08:47:32;;;;;;;;;;;;;;;19.17;57.59;100688.50;7376269;19;1862;-40
2023/12/20 08:50:01;;;;;;;;;;;;;;;19.14;57.62;100699.47;7390244;19;1386;-40
2023/12/20 08:52:30;;;;;;;;;;;;;;;19.21;57.52;100684.53;7387675;19;1647;-40
2023/12/20 08:54:58;;;;;;;;;;;;;;;19.16;57.47;100681.41;7389583;19;1186;-40
2023/12/20 08:57:26;;;;;;;;;;;;;;;19.31;57.48;100679.19;7387124;19;1501;-38
2023/12/20 08:59:54;;;;;;;;;;;;;;;19.28;57.42;100680.34;7390386;19;1419;-39
2023/12/20 09:02:25;;;;;;;;;;;;;;;19.13;57.74;100653.06;7390282;19;1487;-38
2023/12/20 09:04:54;;;;;;;;;;;;;;;18.82;58.51;100669.25;7388860;19;1563;-39
2023/12/20 09:07:26;;;;;;;;;;;;;;;18.54;59.20;100659.22;7389835;19;1246;-39
2023/12/20 09:09:57;;;;;;;;;;;;;;;18.31;59.42;100648.72;7387151;19;1867;-40
2023/12/20 09:12:25;;;;;;;;;;;;;;;18.22;59.88;100638.78;7387885;19;1641;-38
2023/12/20 09:14:54;;;;;;;;;;;;;;;18.18;59.90;100637.38;7388420;19;1475;-39
2023/12/20 09:17:23;;;;;;;;;;;;;;;18.51;59.14;100632.72;7386229;19;1843;-39
2023/12/20 09:19:54;;;;;;;;;;;;;;;18.75;58.46;100627.88;7387595;19;1833;-39
2023/12/20 09:22:23;;;;;;;;;;;;;;;19.03;57.83;100639.66;7387106;19;1524;-39
2023/12/20 09:24:51;;;;;;;;;;;;;;;18.89;58.08;100632.00;7388813;19;1618;-39
2023/12/20 09:27:19;;;;;;;;;;;;;;;18.58;59.12;100624.03;7387878;19;2082;-40
2023/12/20 09:29:48;;;;;;;;;;;;;;;18.37;59.82;100620.56;7384253;19;1940;-43
2023/12/20 09:32:16;;;;;;;;;;;;;;;18.22;60.21;100607.56;7387252;19;1489;-43
2023/12/20 09:34:45;;;;;;;;;;;;;;;18.22;60.62;100595.97;7388401;19;1389;-41
2023/12/20 09:37:16;;;;;;;;;;;;;;;18.27;60.54;100597.28;7389532;19;1519;-42
2023/12/20 09:39:44;;;;;;;;;;;;;;;18.81;59.34;100586.31;7390056;19;1507;-43
2023/12/20 09:42:14;;;;;;;;;;;;;;;19.17;58.54;100578.59;7389230;19;1211;-43
2023/12/20 09:44:44;;;;;;;;;;;;;;;19.15;58.64;100551.06;7387666;19;1507;-43
2023/12/20 09:47:12;;;;;;;;;;;;;;;18.95;59.32;100559.13;7373395;19;1553;-42
2023/12/20 09:49:41;;;;;;;;;;;;;;;18.68;59.89;100544.53;7387444;19;1864;-43
2023/12/20 09:52:10;;;;;;;;;;;;;;;18.45;60.63;100537.72;7376388;19;2033;-43
2023/12/20 09:54:41;;;;;;;;;;;;;;;18.35;60.91;100537.69;7396053;19;1541;-50
2023/12/20 09:57:10;;;;;;;;;;;;;;;18.25;61.23;100559.09;7395526;19;1335;-43
2023/12/20 09:59:39;;;;;;;;;;;;;;;18.31;61.14;100530.09;7396851;19;1316;-42
2023/12/20 10:02:12;;;;;;;;;;;;;;;18.79;60.03;100521.28;7395990;19;1494;-45
2023/12/20 10:04:40;;;;;;;;;;;;;;;19.16;59.10;100510.75;7397250;19;1472;-46
2023/12/20 10:07:08;;;;;;;;;;;;;;;19.18;59.27;100507.88;7396403;19;1496;-42
2023/12/20 10:09:37;;;;;;;;;;;;;;;18.85;59.90;100507.34;7393496;19;1838;-43
2023/12/20 10:12:08;;;;;;;;;;;;;;;18.51;60.38;100505.03;7394360;19;1529;-43
2023/12/20 10:14:37;;;;;;;;;;;;;;;18.43;60.74;100507.56;7396243;19;1568;-42
2023/12/20 10:17:06;;;;;;;;;;;;;;;18.44;60.74;100485.16;7393805;19;1493;-42
2023/12/20 10:19:34;;;;;;;;;;;;;;;18.46;61.10;100484.06;7394807;19;1221;-42
2023/12/20 10:22:02;;;;;;;;;;;;;;;18.45;61.11;100478.81;7393322;19;1520;-39
2023/12/20 10:24:31;;;;;;;;;;;;;;;18.37;61.25;100465.28;7391519;19;1515;-39
2023/12/20 10:27:08;;;;;;;;;;;;;;;18.58;60.48;100460.66;7389765;19;1635;-40
2023/12/20 10:29:37;;;;;;;;;;;;;;;18.93;59.63;100466.47;7388106;19;1862;-40
2023/12/20 10:32:20;;;;;;;;;;;;;;;19.07;59.19;100458.81;7392548;19;1355;-40
2023/12/20 10:34:48;;;;;;;;;;;;;;;18.91;59.68;100453.22;7393427;19;1441;-40
2023/12/20 10:37:16;;;;;;;;;;;;;;;18.71;60.00;100451.50;7393826;19;1399;-39
2023/12/20 10:39:45;;;;;;;;;;;;;;;18.55;60.47;100450.22;7394761;19;1233;-40
2023/12/20 10:42:17;;;;;;;;;;;;;;;18.37;61.12;100435.84;7393927;19;1487;-40
2023/12/20 10:44:45;;;;;;;;;;;;;;;18.39;60.96;100421.31;7392352;19;2522;-40
2023/12/20 10:47:14;;;;;;;;;;;;;;;18.62;60.62;100424.59;7378987;19;1508;-40
2023/12/20 10:49:43;;;;;;;;;;;;;;;18.91;59.78;100422.91;7391199;19;1853;-40
2023/12/20 10:52:11;;;;;;;;;;;;;;;19.14;59.32;100418.03;7392974;19;1457;-40
2023/12/20 10:54:40;;;;;;;;;;;;;;;18.91;59.90;100410.34;7394906;19;1493;-40
2023/12/20 10:57:08;;;;;;;;;;;;;;;18.61;60.34;100419.34;7393413;19;1685;-39
2023/12/20 10:59:40;;;;;;;;;;;;;;;18.54;60.79;100419.06;7391003;19;1590;-40
2023/12/20 11:02:10;;;;;;;;;;;;;;;18.43;61.00;100411.19;7389989;19;1438;-40
2023/12/20 11:04:47;;;;;;;;;;;;;;;18.40;61.03;100403.41;7393208;19;1456;-39
2023/12/20 11:07:21;;;;;;;;;;;;;;;18.53;60.82;100401.31;7392585;19;1488;-40
2023/12/20 11:09:59;;;;;;;;;;;;;;;18.74;60.29;100390.47;7391887;19;1863;-40
2023/12/20 11:12:31;;;;;;;;;;;;;;;18.95;59.88;100390.31;7382486;19;1575;-40
2023/12/20 11:15:04;;;;;;;;;;;;;;;18.84;59.94;100399.34;7391229;19;1521;-40
2023/12/20 11:17:32;;;;;;;;;;;;;;;18.53;60.69;100381.75;7391523;19;1373;-44
2023/12/20 11:20:07;;;;;;;;;;;;;;;18.37;61.15;100385.81;7391106;19;1128;-40
2023/12/20 11:22:37;;;;;;;;;;;;;;;18.36;61.06;100377.91;7391490;19;1352;-40
2023/12/20 11:25:08;;;;;;;;;;;;;;;18.37;60.98;100379.63;7389966;19;1509;-40
2023/12/20 11:27:36;;;;;;;;;;;;;;;18.84;60.03;100367.22;7378348;19;1473;-40
2023/12/20 11:30:09;;;;;;;;;;;;;;;19.28;58.96;100380.06;7387986;19;1879;-40
2023/12/20 11:32:38;;;;;;;;;;;;;;;19.25;58.99;100366.94;7391802;19;1467;-39
2023/12/20 11:35:19;;;;;;;;;;;;;;;18.94;59.90;100358.28;7391612;19;1484;-40
2023/12/20 11:37:49;;;;;;;;;;;;;;;18.76;60.34;100352.78;7392139;19;1579;-40
2023/12/20 11:40:18;;;;;;;;;;;;;;;18.58;61.04;100371.44;7391476;19;1385;-39
2023/12/20 11:42:47;;;;;;;;;;;;;;;18.49;61.17;100346.38;7391832;19;1594;-39
2023/12/20 11:45:19;;;;;;;;;;;;;;;18.40;60.64;100341.84;7392209;19;1385;-39
2023/12/20 11:47:49;;;;;;;;;;;;;;;18.63;60.15;100332.53;7375478;19;1741;-40
2023/12/20 11:50:18;;;;;;;;;;;;;;;18.98;59.50;100315.00;7388507;19;1876;-40
2023/12/20 11:52:46;;;;;;;;;;;;;;;19.15;59.30;100331.28;7391710;19;1425;-40
2023/12/20 11:55:15;;;;;;;;;;;;;;;18.94;60.54;100318.97;7392865;19;1540;-39
2023/12/20 11:57:44;;;;;;;;;;;;;;;18.65;62.24;100319.84;7391417;19;1492;-39
2023/12/20 12:00:13;;;;;;;;;;;;;;;18.49;63.26;100307.03;7390950;19;1627;-39
2023/12/20 12:02:44;;;;;;;;;;;;;;;18.33;64.11;100317.50;7392291;19;1477;-40
2023/12/20 12:05:12;;;;;;;;;;;;;;;18.25;64.25;100296.78;7390367;19;1378;-39
2023/12/20 12:07:41;;;;;;;;;;;;;;;18.59;64.51;100300.81;7392823;19;1377;-39
2023/12/20 12:10:10;;;;;;;;;;;;;;;18.97;63.54;100286.50;7390499;19;1845;-39
2023/12/20 12:12:39;;;;;;;;;;;;;;;19.04;63.47;100266.16;7393202;19;1854;-40
2023/12/20 12:15:09;;;;;;;;;;;;;;;18.74;63.84;100277.97;7392674;19;1579;-40
2023/12/20 12:17:38;;;;;;;;;;;;;;;18.55;64.53;100270.81;7390664;19;1549;-39
2023/12/20 12:20:10;;;;;;;;;;;;;;;18.39;64.96;100265.22;7388350;19;1477;-39
2023/12/20 12:22:38;;;;;;;;;;;;;;;18.28;64.94;100264.38;7390001;19;1575;-39
2023/12/20 12:25:13;;;;;;;;;;;;;;;18.42;64.68;100276.50;7391755;19;1503;-39
2023/12/20 12:27:42;;;;;;;;;;;;;;;18.71;64.06;100274.72;7392004;19;1511;-39
2023/12/20 12:30:12;;;;;;;;;;;;;;;19.00;63.24;100277.31;7389745;19;1858;-39
2023/12/20 12:32:41;;;;;;;;;;;;;;;18.84;63.43;100269.91;7389511;19;1488;-39
2023/12/20 12:35:13;;;;;;;;;;;;;;;18.58;64.09;100275.91;7387915;19;1600;-39
2023/12/20 12:37:42;;;;;;;;;;;;;;;18.36;64.17;100281.56;7386912;19;1582;-39
2023/12/20 12:40:13;;;;;;;;;;;;;;;18.19;64.60;100281.28;7386582;19;1487;-39
2023/12/20 12:42:41;;;;;;;;;;;;;;;18.12;64.80;100285.50;7387574;19;1584;-39
2023/12/20 12:45:09;;;;;;;;;;;;;;;18.38;64.34;100290.28;7388224;19;1466;-39
2023/12/20 12:47:38;;;;;;;;;;;;;;;18.64;63.41;100258.38;7373753;19;1345;-39
2023/12/20 12:50:06;;;;;;;;;;;;;;;18.92;62.79;100272.72;7389047;19;1976;-40
2023/12/20 12:52:37;;;;;;;;;;;;;;;18.74;62.83;100264.56;7391432;19;1560;-39
2023/12/20 12:55:07;;;;;;;;;;;;;;;18.53;63.60;100270.13;7391868;19;1512;-39
2023/12/20 12:57:35;;;;;;;;;;;;;;;18.34;64.07;100278.16;7390788;19;1591;-39